createdAt,value
2022-09-26T00:00:28.061Z,100102.8
2022-09-26T00:01:32.528Z,100107.71
2022-09-26T00:02:37.210Z,100103.39
2022-09-26T00:03:41.900Z,100102.88
2022-09-26T00:04:46.147Z,100096.19
2022-09-26T00:05:50.418Z,100097.11
2022-09-26T00:06:54.694Z,100102.05
2022-09-26T00:07:59.993Z,100094.44
2022-09-26T00:09:04.254Z,100092.77
2022-09-26T00:10:08.554Z,100093.69
2022-09-26T00:11:12.807Z,100092.43
2022-09-26T00:12:17.082Z,100080.64
2022-09-26T00:13:21.371Z,100084.55
2022-09-26T00:14:25.879Z,100086.89
2022-09-26T00:15:30.144Z,100082.06
2022-09-26T00:16:34.644Z,100090.83
2022-09-26T00:17:39.038Z,100084.06
2022-09-26T00:18:43.338Z,100081.8
2022-09-26T00:19:47.635Z,100080.94
2022-09-26T00:20:51.875Z,100087.63
2022-09-26T00:21:56.246Z,100079.71
2022-09-26T00:23:00.527Z,100081.05
2022-09-26T00:24:04.777Z,100085.48
2022-09-26T00:25:09.035Z,100085.14
2022-09-26T00:26:13.290Z,100079.3
2022-09-26T00:27:17.589Z,100086.89
2022-09-26T00:28:21.854Z,100083.39
2022-09-26T00:29:26.151Z,100085.22
2022-09-26T00:30:30.591Z,100078.97
2022-09-26T00:31:34.986Z,100084.73
2022-09-26T00:32:39.239Z,100083.06
2022-09-26T00:33:43.504Z,100083.99
2022-09-26T00:34:48.049Z,100083.62
2022-09-26T00:35:52.300Z,100075.36
2022-09-26T00:36:56.556Z,100078.05
2022-09-26T00:38:00.817Z,100072.36
2022-09-26T00:39:05.245Z,100075.03
2022-09-26T00:40:09.959Z,100075.52
2022-09-26T00:41:14.386Z,100074.29
2022-09-26T00:42:18.668Z,100075.11
2022-09-26T00:43:22.931Z,100065.59
2022-09-26T00:44:27.240Z,100070.02
2022-09-26T00:45:31.574Z,100075.29
2022-09-26T00:46:35.937Z,100066.81
2022-09-26T00:47:40.251Z,100067.66
2022-09-26T00:48:44.548Z,100061.98
2022-09-26T00:49:48.813Z,100059.3
2022-09-26T00:50:53.090Z,100060.56
2022-09-26T00:51:57.402Z,100063.32
2022-09-26T00:53:01.678Z,100059.3
2022-09-26T00:54:05.955Z,100060.64
2022-09-26T00:55:10.206Z,100063.8
2022-09-26T00:56:14.484Z,100065.59
2022-09-26T00:57:18.764Z,100061.73
2022-09-26T00:58:23.068Z,100059.56
2022-09-26T00:59:27.334Z,100064.59
2022-09-26T01:00:34.282Z,100062.73
2022-09-26T01:01:39.041Z,100060.05
2022-09-26T01:02:43.789Z,100055.55
2022-09-26T01:03:48.241Z,100062.24
2022-09-26T01:04:52.517Z,100066.67
2022-09-26T01:05:56.763Z,100070.16
2022-09-26T01:07:01.574Z,100064.07
2022-09-26T01:08:05.834Z,100060.58
2022-09-26T01:09:10.409Z,100069.5
2022-09-26T01:10:14.810Z,100064.59
2022-09-26T01:11:19.068Z,100065.59
2022-09-26T01:12:23.334Z,100067.75
2022-09-26T01:13:27.625Z,100060.13
2022-09-26T01:14:31.920Z,100064.66
2022-09-26T01:15:36.198Z,100056.89
2022-09-26T01:16:40.699Z,100059.56
2022-09-26T01:17:45.134Z,100060.58
2022-09-26T01:18:49.401Z,100052.1
2022-09-26T01:19:53.731Z,100058.72
2022-09-26T01:20:58.007Z,100053.36
2022-09-26T01:22:02.282Z,100052.55
2022-09-26T01:23:06.532Z,100049.27
2022-09-26T01:24:10.812Z,100051.87
2022-09-26T01:25:15.127Z,100048.67
2022-09-26T01:26:19.377Z,100050.09
2022-09-26T01:27:23.628Z,100040.5
2022-09-26T01:28:27.904Z,100042.66
2022-09-26T01:29:32.241Z,100047.93
2022-09-26T01:30:36.615Z,100037.98
2022-09-26T01:31:40.940Z,100035.38
2022-09-26T01:32:45.262Z,100033.63
2022-09-26T01:33:49.523Z,100031.36
2022-09-26T01:34:53.837Z,100030.87
2022-09-26T01:35:58.113Z,100034.56
2022-09-26T01:37:02.413Z,100031.03
2022-09-26T01:38:07.704Z,100031.88
2022-09-26T01:39:12.051Z,100035.05
2022-09-26T01:40:16.804Z,100037.72
2022-09-26T01:41:21.171Z,100033.63
2022-09-26T01:42:25.445Z,100034.23
2022-09-26T01:43:29.719Z,100031.96
2022-09-26T01:44:34.011Z,100029.02
2022-09-26T01:45:38.400Z,100037.72
2022-09-26T01:46:42.762Z,100026.2
2022-09-26T01:47:47.024Z,100029.88
2022-09-26T01:48:51.310Z,100023.6
2022-09-26T01:49:55.630Z,100025.27
2022-09-26T01:50:59.901Z,100022.34
2022-09-26T01:52:04.132Z,100025.87
2022-09-26T01:53:08.396Z,100024.53
2022-09-26T01:54:12.720Z,100026.35
2022-09-26T01:55:17.035Z,100024.61
2022-09-26T01:56:21.325Z,100026.02
2022-09-26T01:57:25.604Z,100020.92
2022-09-26T01:58:29.880Z,100028.02
2022-09-26T01:59:34.125Z,100014.75
2022-09-26T02:00:38.511Z,100016.91
2022-09-26T02:01:42.936Z,100013.08
2022-09-26T02:02:47.689Z,100008.14
2022-09-26T02:03:52.167Z,100018.77
2022-09-26T02:04:56.437Z,100010.73
2022-09-26T02:06:00.726Z,100009.06
2022-09-26T02:07:04.995Z,100003.27
2022-09-26T02:08:09.267Z,100008.62
2022-09-26T02:09:13.761Z,100007.8
2022-09-26T02:10:18.354Z,100002.45
2022-09-26T02:11:22.607Z,100001.03
2022-09-26T02:12:26.844Z,100010.89
2022-09-26T02:13:31.129Z,100007.4
2022-09-26T02:14:35.446Z,100006.55
2022-09-26T02:15:39.751Z,100010.97
2022-09-26T02:16:44.241Z,100008.73
2022-09-26T02:17:48.650Z,100012.31
2022-09-26T02:18:52.914Z,100014.09
2022-09-26T02:19:57.233Z,100020.86
2022-09-26T02:21:01.515Z,100018.84
2022-09-26T02:22:05.816Z,100008.55
2022-09-26T02:23:10.091Z,100010.89
2022-09-26T02:24:14.377Z,100006.55
2022-09-26T02:25:18.651Z,100004.28
2022-09-26T02:26:22.920Z,100002.2
2022-09-26T02:27:27.174Z,100006.14
2022-09-26T02:28:31.425Z,100007.06
2022-09-26T02:29:35.671Z,100002.53
2022-09-26T02:30:39.961Z,100004.39
2022-09-26T02:31:44.403Z,100003.38
2022-09-26T02:32:49.849Z,100005.12
2022-09-26T02:33:54.085Z,99994.84
2022-09-26T02:34:58.354Z,100002.45
2022-09-26T02:36:02.630Z,100002.94
2022-09-26T02:37:06.926Z,100011.41
2022-09-26T02:38:11.191Z,100002.61
2022-09-26T02:39:15.712Z,99999.52
2022-09-26T02:40:20.200Z,99998.59
2022-09-26T02:41:24.615Z,99997.26
2022-09-26T02:42:28.862Z,99994.58
2022-09-26T02:43:33.131Z,99999.11
2022-09-26T02:44:37.366Z,99998.19
2022-09-26T02:45:41.788Z,100000.86
2022-09-26T02:46:46.153Z,99996.52
2022-09-26T02:47:50.390Z,100001.05
2022-09-26T02:48:54.628Z,99995.77
2022-09-26T02:49:58.921Z,99991.69
2022-09-26T02:51:03.150Z,99993.84
2022-09-26T02:52:07.430Z,99988.56
2022-09-26T02:53:11.677Z,99991.35
2022-09-26T02:54:15.910Z,99987
2022-09-26T02:55:20.158Z,99990.42
2022-09-26T02:56:24.385Z,99992.69
2022-09-26T02:57:28.644Z,99989.27
2022-09-26T02:58:32.912Z,99985.34
2022-09-26T02:59:37.157Z,99991.09
2022-09-26T03:00:41.499Z,99985.82
2022-09-26T03:01:46.004Z,99987.16
2022-09-26T03:02:50.254Z,99989.84
2022-09-26T03:03:54.493Z,99981.32
2022-09-26T03:04:58.887Z,99982.91
2022-09-26T03:06:03.275Z,99981.05
2022-09-26T03:07:07.564Z,99984.55
2022-09-26T03:08:11.803Z,99984.98
2022-09-26T03:09:16.191Z,99981.88
2022-09-26T03:10:20.458Z,99982.2
2022-09-26T03:11:24.721Z,99977.7
2022-09-26T03:12:28.984Z,99969.27
2022-09-26T03:13:33.207Z,99977.78
2022-09-26T03:14:37.443Z,99974.17
2022-09-26T03:15:41.678Z,99965.73
2022-09-26T03:16:46.114Z,99967.16
2022-09-26T03:17:50.445Z,99967.59
2022-09-26T03:18:54.711Z,99967.67
2022-09-26T03:19:58.941Z,99962.84
2022-09-26T03:21:03.216Z,99968.6
2022-09-26T03:22:07.443Z,99971.69
2022-09-26T03:23:11.702Z,99972.09
2022-09-26T03:24:15.922Z,99973.03
2022-09-26T03:25:20.196Z,99974.28
2022-09-26T03:26:24.450Z,99971.69
2022-09-26T03:27:28.670Z,99966.34
2022-09-26T03:28:38.538Z,99969.09
2022-09-26T03:29:42.802Z,99965.59
2022-09-26T03:30:47.038Z,99963.25
2022-09-26T03:31:51.693Z,99961.8
2022-09-26T03:32:56.037Z,99963.58
2022-09-26T03:34:00.355Z,99956.78
2022-09-26T03:35:04.640Z,99955.96
2022-09-26T03:36:09.121Z,99958.13
2022-09-26T03:37:13.388Z,99952.36
2022-09-26T03:38:17.613Z,99951.95
2022-09-26T03:39:21.856Z,99949.09
2022-09-26T03:40:26.239Z,99950.09
2022-09-26T03:41:30.585Z,99949.52
2022-09-26T03:42:34.852Z,99936.96
2022-09-26T03:43:39.108Z,99946
2022-09-26T03:44:43.318Z,99949
2022-09-26T03:45:47.672Z,99946.84
2022-09-26T03:46:51.978Z,99947.66
2022-09-26T03:47:56.510Z,99950.75
2022-09-26T03:49:00.786Z,99948.08
2022-09-26T03:50:05.012Z,99954.28
2022-09-26T03:51:09.238Z,99955.62
2022-09-26T03:52:13.482Z,99955.09
2022-09-26T03:53:17.754Z,99955.54
2022-09-26T03:54:22.007Z,99951.6
2022-09-26T03:55:26.291Z,99946.73
2022-09-26T03:56:30.526Z,99948.84
2022-09-26T03:57:34.781Z,99939.81
2022-09-26T03:58:39.011Z,99938.03
2022-09-26T03:59:43.250Z,99935.47
2022-09-26T04:00:47.756Z,99935.88
2022-09-26T04:01:52.255Z,99942.56
2022-09-26T04:02:56.619Z,99935.8
2022-09-26T04:04:00.867Z,99941.97
2022-09-26T04:05:05.121Z,99940.14
2022-09-26T04:06:09.359Z,99949.73
2022-09-26T04:07:13.611Z,99947.98
2022-09-26T04:08:17.854Z,99943.55
2022-09-26T04:09:22.711Z,99952.7
2022-09-26T04:10:27.101Z,99941.06
2022-09-26T04:11:31.373Z,99939.94
2022-09-26T04:12:35.688Z,99932.52
2022-09-26T04:13:55.546Z,99927.45
2022-09-26T04:14:59.832Z,99926.27
2022-09-26T04:16:04.314Z,99929.14
2022-09-26T04:17:08.663Z,99932.16
2022-09-26T04:18:12.910Z,99928.49
2022-09-26T04:19:17.269Z,99930.76
2022-09-26T04:20:21.558Z,99926.23
2022-09-26T04:21:25.815Z,99927.17
2022-09-26T04:22:30.067Z,99928.42
2022-09-26T04:23:34.313Z,99923.83
2022-09-26T04:24:38.600Z,99926.42
2022-09-26T04:25:42.864Z,99934.13
2022-09-26T04:26:47.148Z,99930.59
2022-09-26T04:27:51.366Z,99936.14
2022-09-26T04:28:55.943Z,99923.36
2022-09-26T04:30:00.217Z,99922.17
2022-09-26T04:31:04.575Z,99929.27
2022-09-26T04:32:08.939Z,99927.61
2022-09-26T04:33:13.170Z,99926.05
2022-09-26T04:34:17.453Z,99922.27
2022-09-26T04:35:25.573Z,99925.46
2022-09-26T04:36:29.846Z,99923.79
2022-09-26T04:37:34.101Z,99928.21
2022-09-26T04:38:38.389Z,99931.3
2022-09-26T04:39:42.617Z,99930.81
2022-09-26T04:40:46.975Z,99934.49
2022-09-26T04:41:51.290Z,99936.91
2022-09-26T04:42:55.499Z,99937.84
2022-09-26T04:43:59.742Z,99938.84
2022-09-26T04:45:03.998Z,99951.29
2022-09-26T04:46:08.533Z,99950.88
2022-09-26T04:47:12.991Z,99942.94
2022-09-26T04:48:17.284Z,99938.59
2022-09-26T04:49:21.527Z,99946.88
2022-09-26T04:50:25.769Z,99940
2022-09-26T04:51:30.038Z,99939.86
2022-09-26T04:52:34.269Z,99942.68
2022-09-26T04:53:40.843Z,99940.27
2022-09-26T04:54:45.075Z,99945.02
2022-09-26T04:55:49.380Z,99949.55
2022-09-26T04:56:53.633Z,99942.79
2022-09-26T04:57:57.871Z,99940.79
2022-09-26T04:59:02.154Z,99938.59
2022-09-26T05:00:06.393Z,99942.61
2022-09-26T05:01:10.904Z,99938.7
2022-09-26T05:02:15.440Z,99936.36
2022-09-26T05:03:19.854Z,99931.02
2022-09-26T05:04:28.599Z,99931.5
2022-09-26T05:05:32.830Z,99933.03
2022-09-26T05:06:37.104Z,99930.77
2022-09-26T05:07:41.377Z,99935.86
2022-09-26T05:08:45.716Z,99933.11
2022-09-26T05:09:50.045Z,99929.5
2022-09-26T05:10:54.277Z,99929.91
2022-09-26T05:11:58.548Z,99926.91
2022-09-26T05:13:02.828Z,99929.02
2022-09-26T05:14:07.224Z,99925.23
2022-09-26T05:15:11.473Z,99925.08
2022-09-26T05:16:15.898Z,99922.23
2022-09-26T05:17:20.255Z,99924.23
2022-09-26T05:18:24.566Z,99920.73
2022-09-26T05:19:28.865Z,99917.13
2022-09-26T05:20:33.124Z,99916.55
2022-09-26T05:21:37.363Z,99916.06
2022-09-26T05:22:41.742Z,99911.45
2022-09-26T05:23:46.595Z,99907.86
2022-09-26T05:24:50.901Z,99914.3
2022-09-26T05:25:55.166Z,99911.38
2022-09-26T05:26:59.393Z,99915.64
2022-09-26T05:28:03.649Z,99912.64
2022-09-26T05:29:10.395Z,99913.88
2022-09-26T05:30:15.017Z,99918.41
2022-09-26T05:31:19.430Z,99925.5
2022-09-26T05:32:23.818Z,99927.58
2022-09-26T05:33:28.075Z,99933.45
2022-09-26T05:34:32.308Z,99936.2
2022-09-26T05:35:36.609Z,99940.2
2022-09-26T05:36:40.854Z,99937.69
2022-09-26T05:37:45.070Z,99935.42
2022-09-26T05:38:49.307Z,99936.61
2022-09-26T05:39:53.564Z,99936.53
2022-09-26T05:40:58.360Z,99933.03
2022-09-26T05:42:02.795Z,99934.09
2022-09-26T05:43:07.068Z,99935.91
2022-09-26T05:44:13.666Z,99935.09
2022-09-26T05:45:17.925Z,99933.75
2022-09-26T05:46:22.290Z,99935.02
2022-09-26T05:47:26.686Z,99932.75
2022-09-26T05:48:31.015Z,99938.03
2022-09-26T05:49:35.270Z,99942.27
2022-09-26T05:50:46.755Z,99939.11
2022-09-26T05:51:51.094Z,99939.03
2022-09-26T05:52:55.358Z,99936.61
2022-09-26T05:53:59.656Z,99941.63
2022-09-26T05:55:04.912Z,99944.14
2022-09-26T05:56:09.180Z,99937.6
2022-09-26T05:57:16.011Z,99942.63
2022-09-26T05:58:20.238Z,99940.28
2022-09-26T05:59:24.496Z,99939.27
2022-09-26T06:00:28.869Z,99937.78
2022-09-26T06:01:33.318Z,99943.88
2022-09-26T06:02:38.092Z,99944.73
2022-09-26T06:03:42.556Z,99936.12
2022-09-26T06:04:46.849Z,99942.39
2022-09-26T06:05:51.105Z,99941.28
2022-09-26T06:06:55.365Z,99946.14
2022-09-26T06:07:59.602Z,99948.56
2022-09-26T06:09:03.865Z,99947.9
2022-09-26T06:10:08.114Z,99946.27
2022-09-26T06:11:12.360Z,99951.62
2022-09-26T06:12:16.634Z,99941.63
2022-09-26T06:13:20.859Z,99943.79
2022-09-26T06:14:25.091Z,99941.45
2022-09-26T06:15:29.364Z,99943.94
2022-09-26T06:16:33.981Z,99945.97
2022-09-26T06:17:38.357Z,99947.95
2022-09-26T06:18:42.620Z,99949.06
2022-09-26T06:19:46.859Z,99945.56
2022-09-26T06:20:51.139Z,99943.73
2022-09-26T06:21:55.406Z,99945.89
2022-09-26T06:22:59.671Z,99938.8
2022-09-26T06:24:03.973Z,99937.79
2022-09-26T06:25:10.508Z,99944.53
2022-09-26T06:26:14.740Z,99941.78
2022-09-26T06:27:19.000Z,99938.17
2022-09-26T06:28:24.294Z,99940.13
2022-09-26T06:29:28.606Z,99936.35
2022-09-26T06:30:32.865Z,99942.12
2022-09-26T06:31:37.238Z,99940.37
2022-09-26T06:32:41.618Z,99947.63
2022-09-26T06:33:45.855Z,99940.93
2022-09-26T06:34:52.454Z,99937.52
2022-09-26T06:35:56.786Z,99944.12
2022-09-26T06:37:01.025Z,99937.36
2022-09-26T06:38:05.300Z,99938.84
2022-09-26T06:39:09.659Z,99937.52
2022-09-26T06:40:14.066Z,99933.58
2022-09-26T06:41:18.450Z,99937.84
2022-09-26T06:42:23.260Z,99931.67
2022-09-26T06:43:29.029Z,99934.91
2022-09-26T06:44:33.423Z,99936.58
2022-09-26T06:45:37.707Z,99931.83
2022-09-26T06:46:42.143Z,99934.34
2022-09-26T06:47:46.618Z,99936.69
2022-09-26T06:48:50.856Z,99937.52
2022-09-26T06:49:55.115Z,99946.13
2022-09-26T06:51:01.842Z,99941.78
2022-09-26T06:52:06.099Z,99944.2
2022-09-26T06:53:10.414Z,99945.88
2022-09-26T06:54:14.684Z,99947.47
2022-09-26T06:55:18.929Z,99952
2022-09-26T06:56:23.149Z,99947.22
2022-09-26T06:57:27.442Z,99949.55
2022-09-26T06:58:31.714Z,99943.8
2022-09-26T06:59:35.981Z,99942.55
2022-09-26T07:00:40.505Z,99944.39
2022-09-26T07:01:45.405Z,99941.72
2022-09-26T07:02:50.025Z,99943.13
2022-09-26T07:03:55.535Z,99947.07
2022-09-26T07:04:59.880Z,99943.21
2022-09-26T07:06:04.112Z,99939.05
2022-09-26T07:07:08.353Z,99947.22
2022-09-26T07:08:12.586Z,99940.46
2022-09-26T07:09:18.040Z,99938.38
2022-09-26T07:10:23.020Z,99934.97
2022-09-26T07:12:13.934Z,99930.7
2022-09-26T07:13:19.656Z,99931.44
2022-09-26T07:14:23.967Z,99925.35
2022-09-26T07:15:28.180Z,99926.69
2022-09-26T07:16:32.538Z,99925.35
2022-09-26T07:17:36.889Z,99932.29
2022-09-26T07:18:41.175Z,99931.11
2022-09-26T07:19:45.451Z,99927.43
2022-09-26T07:20:56.738Z,99935.86
2022-09-26T07:22:01.150Z,99931.03
2022-09-26T07:23:05.393Z,99928.52
2022-09-26T07:24:09.647Z,99928.44
2022-09-26T07:25:13.971Z,99936.05
2022-09-26T07:26:18.574Z,99934.86
2022-09-26T07:27:22.852Z,99939.87
2022-09-26T07:28:27.093Z,99930.63
2022-09-26T07:29:31.314Z,99933.53
2022-09-26T07:30:35.567Z,99930.85
2022-09-26T07:31:40.164Z,99935.97
2022-09-26T07:32:44.573Z,99935.13
2022-09-26T07:33:48.826Z,99935.97
2022-09-26T07:34:53.074Z,99942.13
2022-09-26T07:35:58.943Z,99936.86
2022-09-26T07:37:09.062Z,99941.88
2022-09-26T07:38:13.278Z,99940.47
2022-09-26T07:39:17.823Z,99937.64
2022-09-26T07:40:22.211Z,99941.65
2022-09-26T07:41:26.565Z,99941.39
2022-09-26T07:42:30.831Z,99941.65
2022-09-26T07:45:09.566Z,99939.2
2022-09-26T07:46:32.174Z,99942.13
2022-09-26T07:47:36.735Z,99931.52
2022-09-26T07:48:40.992Z,99935.45
2022-09-26T07:49:45.257Z,99938.39
2022-09-26T07:50:49.511Z,99936.38
2022-09-26T07:51:54.034Z,99933.3
2022-09-26T07:52:58.309Z,99935.71
2022-09-26T07:54:02.566Z,99930.85
2022-09-26T07:55:06.842Z,99933.19
2022-09-26T07:56:11.092Z,99932.86
2022-09-26T07:57:15.345Z,99934.13
2022-09-26T07:58:19.634Z,99933.19
2022-09-26T07:59:23.892Z,99929.84
2022-09-26T08:00:28.136Z,99935.71
2022-09-26T08:01:32.531Z,99925.77
2022-09-26T08:02:37.298Z,99928.84
2022-09-26T08:03:41.760Z,99926.77
2022-09-26T08:04:45.999Z,99932.7
2022-09-26T08:05:50.266Z,99926.28
2022-09-26T08:06:54.537Z,99932.52
2022-09-26T08:07:58.788Z,99928.95
2022-09-26T08:09:03.074Z,99935.13
2022-09-26T08:10:07.368Z,99932.7
2022-09-26T08:11:11.643Z,99923.84
2022-09-26T08:12:15.893Z,99931.7
2022-09-26T08:13:20.180Z,99938.46
2022-09-26T08:14:24.433Z,99928.95
2022-09-26T08:15:28.685Z,99938.65
2022-09-26T08:16:33.099Z,99932.78
2022-09-26T08:17:37.489Z,99935.97
2022-09-26T08:18:41.726Z,99934.2
2022-09-26T08:19:45.960Z,99937.12
2022-09-26T08:20:50.232Z,99937.05
2022-09-26T08:21:54.478Z,99942.81
2022-09-26T08:22:58.749Z,99943.4
2022-09-26T08:24:03.019Z,99942.33
2022-09-26T08:25:07.288Z,99942.73
2022-09-26T08:26:11.570Z,99945.15
2022-09-26T08:27:15.794Z,99944.14
2022-09-26T08:28:20.075Z,99950.16
2022-09-26T08:29:24.382Z,99941.14
2022-09-26T08:30:28.646Z,99947
2022-09-26T08:31:33.200Z,99955.25
2022-09-26T08:32:37.663Z,99944.48
2022-09-26T08:33:41.908Z,99947.34
2022-09-26T08:34:46.174Z,99953.09
2022-09-26T08:35:50.428Z,99953.77
2022-09-26T08:36:54.686Z,99950.23
2022-09-26T08:38:01.198Z,99950.67
2022-09-26T08:39:05.456Z,99944.48
2022-09-26T08:40:10.052Z,99944.07
2022-09-26T08:41:14.438Z,99945.48
2022-09-26T08:42:18.698Z,99946.34
2022-09-26T08:43:22.975Z,99942.66
2022-09-26T08:44:27.257Z,99950.34
2022-09-26T08:45:31.500Z,99945.41
2022-09-26T08:46:35.920Z,99945.26
2022-09-26T08:47:40.385Z,99947.75
2022-09-26T08:48:44.644Z,99947.41
2022-09-26T08:49:48.876Z,99947.41
2022-09-26T08:50:53.141Z,99948.67
2022-09-26T08:51:57.433Z,99943.59
2022-09-26T08:53:01.725Z,99938.06
2022-09-26T08:54:06.050Z,99940.87
2022-09-26T08:55:10.473Z,99941.39
2022-09-26T08:56:14.733Z,99942.4
2022-09-26T08:57:19.022Z,99937.13
2022-09-26T08:58:29.012Z,99940.24
2022-09-26T08:59:33.394Z,99941.66
2022-09-26T09:00:37.665Z,99943.07
2022-09-26T09:01:42.246Z,99943.92
2022-09-26T09:02:47.125Z,99938.66
2022-09-26T09:03:52.279Z,99935.91
2022-09-26T09:04:56.551Z,99942.99
2022-09-26T09:06:00.878Z,99936.91
2022-09-26T09:07:07.735Z,99936.23
2022-09-26T09:08:11.983Z,99937.98
2022-09-26T09:09:16.264Z,99936.05
2022-09-26T09:10:20.633Z,99934.9
2022-09-26T09:11:24.875Z,99929.29
2022-09-26T09:12:33.240Z,99932.3
2022-09-26T09:13:37.482Z,99929.96
2022-09-26T09:14:41.787Z,99923.44
2022-09-26T09:15:46.213Z,99924.61
2022-09-26T09:16:50.570Z,99929.22
2022-09-26T09:17:54.824Z,99931.3
2022-09-26T09:18:59.080Z,99935.64
2022-09-26T09:20:03.374Z,99934.64
2022-09-26T09:21:07.639Z,99928.44
2022-09-26T09:22:11.902Z,99927.03
2022-09-26T09:23:16.188Z,99929.7
2022-09-26T09:24:20.460Z,99931.19
2022-09-26T09:25:24.707Z,99929.78
2022-09-26T09:29:03.196Z,99933.19
2022-09-26T09:30:17.776Z,99931.78
2022-09-26T09:31:22.320Z,99931.38
2022-09-26T09:32:26.703Z,99930.11
2022-09-26T09:33:31.021Z,99926.17
2022-09-26T09:34:35.281Z,99932.37
2022-09-26T09:35:39.539Z,99931.03
2022-09-26T09:36:43.804Z,99929.29
2022-09-26T09:37:48.066Z,99927.44
2022-09-26T09:38:52.311Z,99934.97
2022-09-26T09:39:56.515Z,99931.96
2022-09-26T09:41:00.891Z,99931.86
2022-09-26T09:42:05.332Z,99932.71
2022-09-26T09:43:09.610Z,99934.64
2022-09-26T09:44:14.000Z,99938.39
2022-09-26T09:45:18.570Z,99933.23
2022-09-26T09:46:23.017Z,99936.31
2022-09-26T09:47:27.442Z,99941.14
2022-09-26T09:48:31.691Z,99939.31
2022-09-26T09:49:35.942Z,99939.39
2022-09-26T09:50:40.193Z,99940.06
2022-09-26T09:51:44.435Z,99935.8
2022-09-26T09:52:48.667Z,99941.25
2022-09-26T09:53:52.928Z,99945.74
2022-09-26T09:54:57.228Z,99946.59
2022-09-26T09:56:01.493Z,99945.34
2022-09-26T09:57:05.747Z,99942.73
2022-09-26T09:58:09.975Z,99944.74
2022-09-26T09:59:14.210Z,99938.39
2022-09-26T10:00:20.711Z,99945.74
2022-09-26T10:01:24.958Z,99943
2022-09-26T10:02:29.379Z,99951.17
2022-09-26T10:03:33.791Z,99949.5
2022-09-26T10:04:38.033Z,99945.93
2022-09-26T10:05:42.343Z,99941.59
2022-09-26T10:06:48.411Z,99948.75
2022-09-26T10:07:52.733Z,99948.5
2022-09-26T10:08:56.996Z,99943.08
2022-09-26T10:10:38.636Z,99943.59
2022-09-26T10:11:44.045Z,99950.94
2022-09-26T10:12:52.432Z,99948.67
2022-09-26T10:13:56.758Z,99944.74
2022-09-26T10:15:01.068Z,99941.59
2022-09-26T10:16:05.538Z,99942.81
2022-09-26T10:17:09.985Z,99939.91
2022-09-26T10:18:29.749Z,99938.47
2022-09-26T10:19:34.035Z,99937.06
2022-09-26T10:20:38.312Z,99940.33
2022-09-26T10:21:42.566Z,99930.3
2022-09-26T10:22:46.911Z,99938.14
2022-09-26T10:23:51.183Z,99931.56
2022-09-26T10:24:55.417Z,99936.72
2022-09-26T10:25:59.658Z,99939.32
2022-09-26T10:27:03.927Z,99938.73
2022-09-26T10:28:08.182Z,99930.38
2022-09-26T10:29:12.426Z,99931.97
2022-09-26T10:30:16.720Z,99930.23
2022-09-26T10:31:21.103Z,99929.78
2022-09-26T10:32:25.607Z,99936.31
2022-09-26T10:33:29.832Z,99933.97
2022-09-26T10:34:34.055Z,99929.97
2022-09-26T10:35:38.305Z,99929.62
2022-09-26T10:36:42.757Z,99929.3
2022-09-26T10:37:47.034Z,99928.7
2022-09-26T10:38:51.269Z,99921.77
2022-09-26T10:39:55.530Z,99919.02
2022-09-26T10:40:59.885Z,99919.42
2022-09-26T10:42:04.310Z,99927.96
2022-09-26T10:43:08.551Z,99916.27
2022-09-26T10:44:12.863Z,99913.92
2022-09-26T10:45:17.361Z,99913.66
2022-09-26T10:46:21.764Z,99916.08
2022-09-26T10:47:26.173Z,99922.69
2022-09-26T10:48:30.474Z,99914
2022-09-26T10:49:34.763Z,99912.06
2022-09-26T10:50:38.970Z,99918.27
2022-09-26T10:51:43.246Z,99913.73
2022-09-26T10:52:47.507Z,99917.52
2022-09-26T10:53:51.782Z,99922.16
2022-09-26T10:54:56.068Z,99915.59
2022-09-26T10:56:00.298Z,99916.15
2022-09-26T10:57:04.548Z,99919
2022-09-26T10:58:14.228Z,99922.27
2022-09-26T10:59:19.504Z,99916.26
2022-09-26T11:00:23.783Z,99913.73
2022-09-26T11:01:28.160Z,99914.41
2022-09-26T11:02:32.512Z,99918.27
2022-09-26T11:03:39.426Z,99914.19
2022-09-26T11:04:43.829Z,99918.08
2022-09-26T11:05:48.097Z,99911.58
2022-09-26T11:06:52.347Z,99914.14
2022-09-26T11:07:56.597Z,99913.81
2022-09-26T11:09:00.841Z,99914.66
2022-09-26T11:10:05.101Z,99909.57
2022-09-26T11:11:09.352Z,99913.81
2022-09-26T11:12:13.619Z,99917.34
2022-09-26T11:13:17.860Z,99912.58
2022-09-26T11:14:28.183Z,99911.52
2022-09-26T11:15:32.641Z,99907.31
2022-09-26T11:16:38.521Z,99907.73
2022-09-26T11:17:42.958Z,99903.05
2022-09-26T11:18:47.285Z,99905.91
2022-09-26T11:19:55.887Z,99904.89
2022-09-26T11:21:00.162Z,99904.05
2022-09-26T11:22:09.204Z,99903.56
2022-09-26T11:23:13.486Z,99901.37
2022-09-26T11:24:17.890Z,99896.13
2022-09-26T11:25:22.201Z,99902.64
2022-09-26T11:26:26.422Z,99902.3
2022-09-26T11:27:30.664Z,99906.5
2022-09-26T11:28:34.937Z,99904.72
2022-09-26T11:29:39.186Z,99907.32
2022-09-26T11:30:43.749Z,99907.98
2022-09-26T11:31:48.078Z,99916.59
2022-09-26T11:32:52.323Z,99915.86
2022-09-26T11:33:56.591Z,99910.17
2022-09-26T11:35:00.843Z,99899.56
2022-09-26T11:36:05.083Z,99910.07
2022-09-26T11:37:09.337Z,99906.06
2022-09-26T11:38:13.607Z,99898.14
2022-09-26T11:39:17.842Z,99900.89
2022-09-26T11:40:22.292Z,99896.63
2022-09-26T11:41:26.655Z,99892.02
2022-09-26T11:42:30.922Z,99899.3
2022-09-26T11:43:35.164Z,99900.9
2022-09-26T11:44:39.437Z,99895.14
2022-09-26T11:45:48.384Z,99902.16
2022-09-26T11:46:52.729Z,99900.16
2022-09-26T11:47:57.183Z,99905.66
2022-09-26T11:49:01.440Z,99901.64
2022-09-26T11:50:05.679Z,99904.98
2022-09-26T11:51:10.020Z,99900.83
2022-09-26T11:52:14.251Z,99904.66
2022-09-26T11:53:18.523Z,99906.84
2022-09-26T11:54:22.787Z,99905.25
2022-09-26T11:55:27.025Z,99901.39
2022-09-26T11:56:31.294Z,99896.05
2022-09-26T11:57:35.567Z,99900.39
2022-09-26T11:58:39.805Z,99904.91
2022-09-26T11:59:44.059Z,99903.06
2022-09-26T12:00:48.404Z,99896.22
2022-09-26T12:01:52.697Z,99898.97
2022-09-26T12:02:57.338Z,99899.64
2022-09-26T12:04:02.351Z,99897.05
2022-09-26T12:05:06.944Z,99897.89
2022-09-26T12:06:11.339Z,99894.3
2022-09-26T12:07:15.570Z,99895.37
2022-09-26T12:08:19.877Z,99894.37
2022-09-26T12:09:24.203Z,99888.28
2022-09-26T12:10:28.478Z,99884.2
2022-09-26T12:11:32.732Z,99883.72
2022-09-26T12:12:41.536Z,99882.2
2022-09-26T12:13:45.788Z,99878.52
2022-09-26T12:14:50.039Z,99883.79
2022-09-26T12:15:57.167Z,99880.94
2022-09-26T12:17:01.596Z,99877.19
2022-09-26T12:18:05.845Z,99877.92
2022-09-26T12:19:16.867Z,99878.45
2022-09-26T12:20:21.155Z,99877.11
2022-09-26T12:21:25.397Z,99876.52
2022-09-26T12:22:29.649Z,99874
2022-09-26T12:23:33.871Z,99875.77
2022-09-26T12:24:38.138Z,99874.59
2022-09-26T12:25:42.378Z,99877.45
2022-09-26T12:26:46.726Z,99873.18
2022-09-26T12:27:50.986Z,99882.61
2022-09-26T12:28:55.203Z,99875.52
2022-09-26T12:29:59.494Z,99873.52
2022-09-26T12:31:04.097Z,99876.19
2022-09-26T12:32:08.735Z,99871.92
2022-09-26T12:33:13.014Z,99881.38
2022-09-26T12:34:17.274Z,99878.37
2022-09-26T12:35:21.595Z,99877.86
2022-09-26T12:36:25.865Z,99875.03
2022-09-26T12:37:30.125Z,99878.2
2022-09-26T12:38:34.385Z,99872.36
2022-09-26T12:39:38.637Z,99874.86
2022-09-26T12:40:43.122Z,99875.37
2022-09-26T12:41:47.533Z,99867.51